Date,TemperatureHighF,TemperatureAvgF,TemperatureLowF,DewpointHighF,DewpointAvgF,DewpointLowF,HumidityHigh,HumidityAvg,HumidityLow,PressureMaxIn,PressureMinIn,WindSpeedMaxMPH,WindSpeedAvgMPH,GustSpeedMaxMPH,PrecipitationSumIn
2014-1-1,58.0,50.2,46.2,56.9,42.2,35.6,96,74,57,30.41,30.11,15,4,15,0.15
2014-1-2,62.1,52.9,49.3,61.7,52.3,48.6,99,98,93,30.12,29.44,31,3,31,0.84
2014-1-3,52.5,38.5,31.9,52.0,30.2,18.2,98,72,54,30.45,29.49,43,21,43,0.01
2014-1-4,53.7,40.0,32.0,52.6,35.7,23.7,97,85,71,30.49,30.25,19,9,19,0.00
2014-1-5,67.3,64.1,54.1,65.6,60.0,52.4,95,87,80,30.26,29.82,22,6,22,0.01
2014-1-6,67.3,57.3,38.7,65.4,53.1,26.4,98,86,57,30.01,29.60,34,13,34,0.03
2014-1-7,38.8,26.1,20.3,28.0,15.0,6.8,78,63,53,30.51,30.01,38,15,38,0.00
2014-1-8,38.4,31.6,28.2,23.9,17.2,10.9,76,56,33,30.62,30.47,21,6,21,0.00
2014-1-9,57.4,44.6,30.6,50.1,37.1,22.3,90,75,52,30.56,30.45,19,6,19,0.00
2014-1-10,68.5,62.9,56.4,64.3,56.8,50.3,94,81,65,30.45,30.08,28,5,28,0.05
2014-1-11,71.5,65.3,57.1,68.7,63.9,56.2,98,95,91,30.09,29.61,36,8,36,1.55
2014-1-12,60.4,52.5,44.8,59.3,46.7,41.1,96,81,67,30.18,29.63,24,9,28,0.04
2014-1-13,62.2,53.0,42.9,56.2,46.6,39.0,95,80,55,30.22,29.99,12,1,12,0.00
2014-1-14,65.3,58.8,50.4,62.9,56.9,48.8,98,93,87,29.99,29.69,30,6,30,1.00
2014-1-15,50.9,49.0,47.4,49.1,47.5,45.9,97,95,93,29.97,29.82,11,2,33,0.02
2014-1-16,50.9,44.5,40.7,48.5,42.3,36.6,96,92,84,30.04,29.78,29,10,29,0.00
2014-1-17,58.4,49.9,41.8,51.3,40.2,26.8,84,70,45,30.08,29.85,22,7,22,0.00
2014-1-18,54.4,41.6,38.3,49.5,29.5,20.8,84,62,49,30.06,29.79,25,12,25,0.02
2014-1-19,52.7,46.0,38.7,43.5,35.3,22.6,80,66,52,30.05,29.87,23,8,23,0.00
2014-1-20,56.8,51.4,46.7,48.2,43.3,38.3,88,74,58,29.93,29.77,25,8,25,0.00
2014-1-21,59.7,53.3,40.5,51.9,47.1,38.3,93,80,70,29.83,29.43,41,10,41,0.14
2014-1-22,30.6,27.5,25.5,20.7,12.7,-99.9,72,62,58,30.10,29.94,36,15,36,0.00
2014-1-23,36.9,34.4,28.5,23.1,0.7,-99.9,58,44,45,30.32,30.10,20,8,20,0.00
2014-1-24,35.0,25.0,21.3,22.4,-19.0,-99.9,72,44,47,30.53,30.30,36,14,36,0.00
2014-1-25,47.4,37.4,25.6,36.6,-86.0,-99.9,76,7,57,30.30,29.63,47,16,47,0.00
2014-1-26,50.4,44.4,39.3,43.7,34.5,26.7,81,68,49,30.01,29.79,20,8,21,0.00
2014-1-27,57.1,51.4,41.4,50.0,44.4,35.6,88,77,66,30.00,29.80,37,8,37,0.00
2014-1-28,41.2,33.6,28.5,36.8,7.5,-99.9,95,68,72,30.25,29.99,38,11,38,0.00
2014-1-30,39.9,38.2,35.0,-99.9,-99.9,-99.9,0,0,100,30.34,30.15,26,12,33,0.00
2014-1-31,48.8,43.8,39.8,-99.9,-99.9,-99.9,0,0,100,30.20,30.12,19,6,19,0.00
2014-2-1,63.2,48.0,43.5,62.8,45.1,41.1,99,90,81,30.23,30.05,12,5,16,0.02
2014-2-2,56.8,52.2,44.7,55.8,51.5,43.9,99,97,95,30.11,30.03,14,3,14,0.01
2014-2-3,66.3,54.4,40.5,64.2,52.9,38.5,98,95,91,30.20,29.90,29,12,29,0.01
2014-2-4,62.9,43.3,40.5,62.6,42.1,38.6,100,96,93,30.32,30.02,26,12,26,0.06
2014-2-5,65.5,57.8,47.7,65.2,57.2,46.9,100,98,94,30.02,29.73,21,7,29,0.38
2014-2-6,49.1,40.0,35.9,47.5,34.7,29.7,95,81,77,30.32,29.96,29,15,29,0.00
2014-2-7,43.8,39.7,33.7,39.3,36.2,31.3,100,88,78,30.31,30.21,24,11,33,0.20
2014-2-8,44.0,42.2,38.2,42.4,39.6,36.4,96,90,80,30.26,30.03,24,12,24,0.55
2014-2-9,48.6,42.8,37.7,45.9,39.7,35.6,93,89,81,30.17,29.98,18,6,18,0.00
2014-2-10,50.2,42.3,36.4,46.7,38.5,33.2,94,86,80,30.21,29.97,25,12,29,0.00
2014-2-11,47.4,37.3,29.4,33.7,-48.8,-99.9,97,37,86,30.33,30.18,42,19,42,0.00
2014-2-12,54.7,41.5,36.9,54.1,9.1,-99.9,98,72,85,30.33,29.64,37,17,37,0.28
2014-2-13,60.2,45.5,38.0,59.4,43.0,-99.9,99,94,89,29.65,29.31,35,-1,35,0.00
2014-2-14,52.9,47.2,40.6,46.8,41.5,35.8,90,81,65,29.82,29.58,30,11,30,3.90
2014-2-15,54.0,47.2,38.9,50.3,42.5,27.5,94,84,61,29.99,29.44,41,15,41,0.08
2014-2-16,48.9,43.7,37.5,40.8,34.8,25.6,84,71,60,30.12,29.98,25,8,25,0.00
2014-2-17,44.8,39.4,37.3,40.2,33.4,29.0,88,79,69,30.38,30.12,27,12,33,0.00
2014-2-18,59.8,51.1,41.2,57.0,46.2,38.0,98,84,61,30.21,30.07,22,5,22,0.00
2014-2-19,61.9,55.5,48.2,59.2,52.2,46.6,96,89,79,30.12,29.88,27,5,27,0.00
2014-2-20,72.0,61.5,50.9,65.4,57.2,45.5,95,86,75,30.19,30.06,18,6,18,0.00
2014-2-21,72.2,67.1,63.4,67.7,64.4,61.4,95,91,84,30.07,29.84,27,7,27,0.00
2014-2-22,55.0,52.4,50.4,50.1,46.7,42.8,90,81,70,30.14,30.08,16,5,16,0.00
2014-2-23,60.9,54.2,50.3,53.8,48.8,45.2,89,82,64,30.09,29.86,14,4,14,0.00
2014-2-24,57.3,56.8,56.3,53.0,52.4,51.8,87,85,82,29.86,29.85,9,6,9,0.00
2014-2-25,51.7,49.4,45.6,46.9,43.5,38.5,84,80,74,30.03,29.86,28,11,28,0.00
2014-2-26,47.5,42.1,38.9,42.8,37.3,33.3,92,83,73,29.84,29.76,31,14,31,0.00
2014-2-27,43.1,42.0,39.9,38.2,35.8,33.1,86,79,71,29.83,29.74,19,10,19,0.00
2014-2-28,39.8,37.2,36.0,35.7,31.9,29.0,85,81,76,30.27,30.19,39,20,39,0.00
2014-3-1,50.6,46.5,42.0,46.9,42.7,38.4,92,87,80,30.27,30.18,21,8,21,0.00
2014-3-2,63.1,52.8,42.1,57.1,47.8,40.3,96,84,49,30.20,29.92,18,3,18,0.00
2014-3-3,57.8,40.9,33.9,53.0,38.6,31.6,94,91,82,30.15,29.89,39,20,39,0.00
2014-3-4,39.1,37.0,33.7,37.0,34.9,31.1,96,92,87,30.19,30.10,34,20,34,0.00
2014-3-5,42.1,39.3,36.1,40.2,37.3,34.5,96,92,76,30.20,30.05,30,14,30,0.00
2014-3-6,47.8,45.4,41.1,47.0,43.0,36.6,97,91,83,30.24,29.96,32,18,33,0.00
2014-3-7,50.1,45.3,43.3,49.6,41.0,-99.9,98,93,92,29.96,29.55,54,-15,54,0.04
2014-3-8,55.4,46.1,38.2,49.1,42.3,35.4,93,87,65,30.02,29.75,43,13,43,0.04
2014-3-9,53.7,48.7,44.3,47.8,43.9,41.1,91,84,75,30.04,29.97,24,7,24,0.00
2014-3-10,68.2,52.9,43.6,52.3,45.4,28.9,94,79,23,30.02,29.78,13,2,13,0.00
2014-3-11,65.8,56.3,50.9,54.2,51.1,48.1,93,83,57,29.79,29.67,18,5,18,0.00
2014-3-12,62.8,58.6,54.0,58.9,56.2,51.9,94,92,87,29.70,29.29,25,10,31,0.00
2014-3-13,56.3,43.9,40.2,54.6,27.5,16.8,94,53,36,30.20,29.40,44,22,44,0.00
2014-3-14,55.4,46.8,33.5,49.7,29.1,15.7,81,51,31,30.35,30.13,22,6,22,0.00
2014-3-15,63.6,57.4,53.2,53.5,50.9,47.8,87,79,58,30.12,29.91,19,7,19,0.00
2014-3-16,56.1,52.2,49.3,51.8,49.4,46.8,97,90,81,30.01,29.75,22,7,22,0.00
2014-3-17,50.4,45.6,42.5,49.9,44.3,41.1,98,95,92,29.86,29.67,29,17,29,0.00
2014-3-18,59.2,45.7,45.6,57.3,32.6,-99.9,98,87,95,29.99,29.73,46,-36,46,0.00
2014-3-19,53.7,48.5,46.7,52.8,46.3,-99.9,98,96,96,30.07,29.96,29,-3,29,0.00
2014-3-20,61.2,55.4,50.2,54.3,51.3,48.3,94,87,64,29.98,29.90,14,5,16,0.00
2014-3-21,61.2,54.0,50.4,52.4,45.3,34.6,95,74,39,30.14,29.97,22,5,22,0.00
2014-3-22,66.2,60.7,53.8,60.7,55.2,47.6,94,82,71,30.09,29.92,23,4,23,0.00
2014-3-23,61.7,53.4,44.2,60.0,49.7,39.6,97,87,67,30.06,29.86,33,12,33,0.00
2014-3-24,44.7,41.1,38.6,40.5,32.7,26.6,87,72,59,30.23,30.05,31,13,31,0.00
2014-3-25,49.1,45.2,40.4,47.7,39.8,28.9,96,82,55,30.15,29.54,38,12,38,0.00
2014-3-26,45.2,42.5,38.0,37.7,26.6,20.1,89,54,38,30.31,29.75,35,18,35,0.00
2014-3-27,56.2,45.1,40.4,50.8,32.7,20.1,91,63,38,30.49,30.30,16,4,16,0.00
2014-3-28,68.8,64.3,55.8,60.7,58.2,50.1,89,81,73,30.34,30.15,23,5,23,0.00
2014-3-29,68.8,65.5,62.7,65.2,62.8,59.4,97,91,82,30.15,29.61,27,8,27,0.00
2014-3-30,64.7,53.5,47.1,63.7,49.7,42.2,98,87,75,29.83,29.51,34,12,34,0.00
2014-3-31,59.6,51.5,48.0,49.2,43.5,38.5,87,74,64,30.08,29.82,0,0,0,0.00
2014-4-1,66.8,59.8,47.8,57.8,51.3,39.2,96,75,40,30.13,30.01,5,0,33,0.00
2014-4-2,67.6,63.0,58.8,60.5,57.5,53.3,92,82,74,30.08,29.99,0,0,0,0.00
2014-4-3,67.5,63.5,59.6,61.7,57.9,52.5,89,82,62,30.04,29.92,0,0,0,0.00
2014-4-4,68.1,64.6,61.3,63.4,61.8,58.5,98,91,82,29.93,29.77,0,0,0,0.00
2014-4-5,70.7,63.6,58.5,63.6,59.3,48.9,94,86,68,30.04,29.80,0,0,0,0.00
2014-4-6,59.6,53.9,50.8,53.5,47.4,40.5,92,79,59,30.17,30.03,0,0,0,0.00
2014-4-7,69.4,63.8,55.9,68.0,62.1,53.3,98,94,91,30.09,29.77,0,0,0,0.00
2014-4-8,68.5,65.6,60.9,67.0,64.3,57.9,98,96,86,29.77,29.53,20,2,20,0.00
2014-4-9,61.2,59.1,56.4,58.0,49.8,43.4,90,72,55,30.05,29.57,24,4,24,0.00
2014-4-10,69.2,62.9,57.8,59.4,52.7,43.8,87,70,43,30.26,30.05,12,1,12,0.00
2014-4-11,70.3,66.0,62.5,62.0,59.6,55.9,88,80,72,30.25,30.10,0,0,0,0.00
2014-4-12,72.8,67.4,63.6,62.6,61.6,60.0,92,82,67,30.23,30.14,0,0,0,0.00
2014-4-13,75.0,71.3,64.6,64.9,63.8,61.6,92,78,68,30.23,30.15,12,0,33,0.00
2014-4-14,75.3,68.9,65.6,67.3,63.3,59.6,96,83,60,30.15,29.91,0,0,0,0.00
2014-4-15,71.9,65.6,51.7,69.9,60.1,-99.9,97,90,88,29.91,29.64,57,3,57,0.00
2014-4-16,51.4,46.8,44.4,50.2,40.6,35.6,96,79,67,30.40,29.78,45,21,45,0.00
2014-4-17,56.5,48.8,47.4,53.0,38.7,-99.9,92,80,80,30.46,30.35,27,18,33,0.48
2014-4-18,54.3,52.1,50.4,52.9,50.1,48.7,96,93,83,30.41,30.19,27,16,27,0.11
2014-4-19,71.6,56.9,52.3,68.0,31.1,-99.9,97,82,89,30.19,30.00,36,18,37,1.77
2014-4-20,72.1,59.3,52.3,56.7,4.1,-99.9,99,65,94,30.08,30.00,43,14,43,0.35
2014-4-21,70.6,59.3,52.4,57.2,29.8,-99.9,96,76,83,30.02,29.89,39,15,39,0.35
2014-4-22,67.4,60.3,50.5,61.3,56.2,49.3,98,87,68,29.90,29.63,21,6,21,0.03
2014-4-23,64.3,60.3,54.9,60.7,53.7,47.3,93,79,65,29.92,29.60,20,6,20,0.03
2014-4-24,59.4,55.9,53.6,49.5,46.2,42.7,77,70,56,30.06,29.92,22,8,22,0.00
2014-4-25,72.4,69.4,62.3,68.5,64.1,55.3,96,83,67,29.99,29.70,18,8,35,0.51
2014-4-26,64.6,64.2,63.8,63.2,62.9,62.6,96,96,95,29.74,29.74,14,8,14,0.51
2014-4-27,64.5,61.2,58.7,57.3,52.1,48.6,80,72,67,30.03,29.96,20,9,20,0.00
2014-4-28,72.1,67.7,60.8,69.1,62.5,48.2,93,84,63,30.02,29.88,17,5,17,0.00
2014-4-29,76.4,70.1,64.2,71.9,67.9,63.0,97,93,84,30.09,29.88,19,5,33,0.01
2014-4-30,77.1,73.2,70.6,71.2,69.9,68.2,96,90,81,30.10,29.94,28,8,28,0.26
2014-5-1,76.3,72.9,67.4,73.0,70.7,65.6,97,93,86,29.97,29.81,38,8,38,0.61
2014-5-2,72.2,65.2,63.1,70.7,58.5,54.2,95,79,67,29.90,29.82,17,6,17,0.03
2014-5-3,69.9,65.7,59.4,63.8,58.4,53.7,92,78,63,29.89,29.82,15,5,16,0.09
2014-5-4,74.2,69.9,66.5,64.4,59.1,51.4,89,69,47,29.94,29.80,24,9,24,0.09
2014-5-5,71.0,64.6,62.2,64.1,52.7,46.6,81,66,54,30.00,29.82,27,10,27,0.00
2014-5-6,74.5,68.2,63.5,70.6,64.2,58.9,91,87,77,30.01,29.81,25,9,25,0.00
2014-5-7,74.8,70.3,63.7,70.2,66.2,61.3,95,87,77,30.14,30.01,20,7,20,0.00
2014-5-8,78.3,73.8,71.0,71.4,69.7,65.1,97,87,71,30.15,30.05,20,7,22,0.00
2014-5-9,78.1,74.2,72.4,72.3,69.5,64.9,96,86,72,30.14,30.04,21,9,24,0.00
2014-5-10,79.3,74.2,72.1,73.2,71.5,70.0,97,91,79,30.14,30.03,26,9,26,0.01
2014-5-11,78.8,74.5,72.1,73.1,71.1,69.5,97,89,77,30.11,30.04,18,6,18,0.01
2014-5-12,77.9,74.2,72.1,73.9,71.9,70.9,97,93,84,30.18,30.10,15,4,15,0.00
2014-5-13,79.8,75.3,71.7,74.1,71.7,70.0,97,89,79,30.15,30.08,20,8,20,0.01
2014-5-14,80.3,75.8,71.6,73.0,71.4,69.8,95,87,73,30.18,30.11,14,5,14,0.01
2014-5-15,80.0,77.3,72.9,72.4,71.6,69.7,91,83,77,30.11,29.95,24,8,33,0.00
2014-5-16,75.6,73.5,70.3,73.1,69.3,58.9,97,87,64,29.95,29.80,28,8,28,0.72
2014-5-17,71.5,67.6,63.2,59.8,51.8,45.4,75,58,43,30.13,29.95,30,12,30,0.72
2014-5-18,70.9,67.3,62.8,59.9,51.7,47.0,87,58,46,30.16,30.10,12,4,19,0.00
2014-5-19,67.0,64.6,57.7,58.1,47.5,38.8,80,55,38,30.25,30.13,24,9,24,0.00
2014-5-20,72.8,66.9,56.9,59.9,54.3,46.0,79,65,39,30.24,30.10,21,6,21,0.00
2014-5-21,75.3,71.8,68.4,69.3,64.9,59.0,92,79,70,30.10,29.92,25,10,25,0.00
2014-5-22,82.3,75.4,71.5,73.3,70.8,68.7,92,86,68,29.92,29.80,18,6,18,0.00
2014-5-23,78.7,74.2,69.6,72.8,66.2,58.4,88,77,63,29.96,29.83,18,7,18,0.00
2014-5-24,72.7,68.9,64.6,70.4,61.4,57.0,93,77,68,30.10,29.89,26,7,26,0.07
2014-5-25,77.0,69.9,60.8,64.0,60.9,55.6,89,74,50,30.17,30.07,15,4,15,0.07
2014-5-26,78.5,74.1,70.8,69.5,66.7,63.6,88,78,62,30.21,30.09,22,8,22,0.00
2014-5-27,77.1,74.7,72.8,72.2,70.3,68.0,90,86,82,30.11,29.93,29,11,29,0.00
2014-5-28,81.5,76.2,72.7,75.4,72.1,68.4,94,87,73,29.96,29.88,23,8,23,0.01
2014-5-29,77.9,72.2,69.9,74.9,68.9,66.4,94,89,86,30.06,29.92,25,10,25,0.01
2014-5-30,70.7,68.9,66.7,67.6,64.6,62.0,91,86,82,30.08,29.99,18,8,18,0.01
2014-5-31,72.8,69.1,66.2,65.9,60.6,53.7,86,75,59,30.19,30.05,28,10,28,0.00
2014-6-1,68.6,66.6,63.9,60.1,57.2,53.5,85,72,62,30.30,30.18,25,12,25,0.00
2014-6-2,73.3,67.9,62.6,62.8,59.5,53.6,91,75,53,30.26,30.13,14,6,14,0.00
2014-6-3,77.8,75.0,72.3,69.3,68.0,65.7,85,79,71,30.07,29.89,20,8,20,0.00
2014-6-4,81.2,76.2,72.7,74.8,72.1,69.4,93,87,76,29.90,29.77,24,7,24,0.00
2014-6-5,78.8,75.9,72.1,74.2,72.5,69.9,94,89,85,29.82,29.69,32,11,32,0.21
2014-6-6,77.3,73.9,70.7,71.9,67.3,63.0,94,80,65,29.93,29.80,18,7,19,0.01
2014-6-7,75.8,73.4,67.8,66.5,62.4,58.4,79,69,58,29.98,29.91,20,8,20,0.01
2014-6-8,77.7,70.3,63.8,65.3,61.4,57.2,88,74,50,30.00,29.92,13,3,13,0.00
2014-6-9,80.5,76.7,76.5,73.7,69.0,-99.9,88,81,78,29.94,-32.77,23,-14,23,0.00
2014-6-10,80.3,76.4,70.3,77.3,74.4,68.7,97,93,87,29.97,29.89,28,6,28,0.85
2014-6-11,85.3,79.7,76.1,79.0,76.5,74.1,97,90,77,29.97,29.88,18,6,18,0.00
2014-6-12,80.0,77.7,72.8,75.3,74.0,71.6,97,88,83,29.92,29.82,17,5,17,0.42
2014-6-13,81.6,78.2,72.2,77.1,74.9,69.7,95,90,77,29.88,29.79,22,7,22,0.38
2014-6-14,78.3,75.0,70.0,75.3,71.4,67.7,95,89,79,30.03,29.83,32,6,32,0.33
2014-6-15,76.7,74.0,71.0,70.2,66.4,64.0,91,77,67,30.16,30.01,21,6,21,0.00
2014-6-16,82.3,77.7,70.8,75.1,71.9,64.8,89,83,77,30.17,30.08,18,5,18,0.00
2014-6-17,83.4,79.5,77.3,76.9,74.3,72.2,88,84,74,30.14,30.06,22,9,22,0.00
2014-6-18,84.0,80.4,76.3,76.3,40.1,-99.9,91,68,77,30.10,30.02,26,11,26,0.00
2014-6-19,84.0,80.2,75.2,76.9,75.4,71.7,92,86,76,30.08,29.94,27,10,27,0.20
2014-6-20,83.0,79.4,77.7,76.2,74.1,71.4,93,84,77,29.99,29.90,16,5,33,0.00
2014-6-21,82.8,78.1,72.9,77.4,74.6,70.4,96,89,80,29.93,29.78,22,5,22,0.56
2014-6-22,80.7,77.8,73.7,76.3,74.3,71.9,96,89,84,29.91,29.76,25,6,25,0.01
2014-6-23,79.8,77.4,75.0,73.2,71.4,69.5,91,82,74,30.09,29.90,20,8,20,0.00
2014-6-24,83.7,79.6,75.4,76.1,74.4,72.0,94,85,75,30.11,30.02,16,5,16,0.00
2014-6-25,84.3,80.6,75.8,78.5,76.6,72.7,94,88,79,30.04,29.89,21,6,21,0.01
2014-6-26,86.6,83.0,79.8,79.0,76.8,74.5,93,82,71,29.95,29.87,18,6,33,0.00
2014-6-27,82.0,78.3,72.4,78.3,75.0,71.2,97,90,78,30.07,29.93,18,5,18,1.91
2014-6-28,81.1,77.9,74.6,76.3,72.9,67.3,96,85,72,30.16,30.05,27,9,27,0.01
2014-6-29,77.7,75.1,72.9,70.0,67.9,66.0,86,78,72,30.17,30.08,19,7,19,0.00
2014-6-30,81.9,76.9,71.3,73.2,70.5,66.6,88,81,69,30.10,29.97,13,4,13,0.00
2014-7-1,84.4,80.0,73.9,75.7,73.2,70.1,90,80,71,29.99,29.91,16,3,16,0.00
2014-7-2,85.7,82.6,80.0,80.5,78.3,75.2,92,87,82,30.00,29.91,21,6,21,0.00
2014-7-3,86.5,82.4,76.2,80.3,78.1,72.9,95,87,81,30.01,29.34,58,9,58,1.63
2014-7-4,83.6,81.6,76.9,76.1,73.4,72.2,96,77,71,30.01,29.14,50,9,50,1.88
2014-7-5,76.6,75.6,71.3,63.6,59.7,55.6,66,58,50,30.22,30.18,20,9,20,0.00
2014-7-6,80.5,78.4,76.2,72.2,67.6,57.4,87,70,53,30.16,30.03,18,4,33,0.00
2014-7-7,83.5,79.6,76.4,76.4,74.7,72.2,92,85,76,30.05,29.95,20,6,20,0.00
2014-7-8,85.3,81.8,79.2,80.0,77.7,75.7,92,87,80,30.03,29.92,26,10,26,0.00
2014-7-9,84.8,82.2,80.2,80.6,78.7,76.6,92,89,84,30.04,29.94,24,10,24,0.00
2014-7-10,85.6,81.2,73.6,80.1,77.2,71.0,96,88,76,30.10,30.02,24,8,24,1.63
2014-7-11,80.7,77.4,73.0,76.4,74.2,71.9,97,90,80,30.17,30.07,14,4,15,0.07
2014-7-12,81.0,77.6,72.5,76.1,73.6,70.4,96,88,75,30.19,30.12,18,4,18,0.50
2014-7-13,83.5,79.4,73.4,76.8,74.3,71.4,95,84,76,30.13,30.02,15,4,15,0.00
2014-7-14,84.8,81.2,78.5,78.8,76.7,74.9,94,86,79,30.03,29.90,16,7,19,0.00
2014-7-15,83.9,80.6,76.4,79.2,76.8,73.0,94,88,77,29.92,29.78,32,9,32,0.06
2014-7-16,78.2,75.9,73.5,75.7,74.1,72.3,97,94,89,29.86,29.80,21,5,21,1.96
2014-7-17,79.2,77.0,74.0,74.1,70.8,68.2,97,81,71,30.06,29.84,18,8,18,0.00
2014-7-18,80.1,77.9,75.7,70.3,67.8,64.9,83,71,64,30.13,30.04,23,10,23,0.00
2014-7-19,79.6,77.2,75.0,76.3,73.7,66.0,96,89,70,30.12,30.00,21,8,21,0.24
2014-7-20,82.9,78.5,76.0,73.4,71.8,67.6,91,80,62,30.09,30.03,10,3,10,0.00
2014-7-21,81.3,78.4,76.3,76.1,74.4,71.6,93,88,79,30.11,30.04,17,4,17,0.01
2014-7-22,81.8,78.6,74.4,77.7,75.7,73.5,97,91,83,30.12,30.05,17,5,17,0.36
2014-7-23,83.8,80.0,78.2,78.5,76.6,75.2,92,90,83,30.06,29.90,21,7,21,0.01
2014-7-24,84.5,78.8,74.2,80.2,76.1,72.2,95,92,85,29.91,29.82,27,8,27,0.81
2014-7-25,79.8,76.2,72.2,73.8,72.2,70.5,96,88,78,30.02,29.86,19,7,19,0.08
2014-7-26,83.1,79.3,75.2,77.4,75.0,70.9,95,87,75,30.01,29.92,13,4,13,0.00
2014-7-27,85.0,81.8,79.4,81.6,78.2,73.9,95,89,75,29.95,29.78,22,5,22,0.00
2014-7-28,85.5,82.2,78.7,80.3,77.8,72.2,95,87,72,29.79,29.70,22,8,22,0.00
2014-7-29,82.1,78.2,75.9,74.7,69.7,66.3,80,75,63,29.95,29.78,19,9,19,0.00
2014-7-30,79.2,77.2,74.9,68.3,66.8,64.1,79,70,64,30.04,29.93,19,8,19,0.00
2014-7-31,82.5,79.9,77.3,71.5,68.6,64.3,82,69,57,30.12,30.08,17,6,17,0.00
2014-8-1,79.3,76.6,72.6,76.7,73.1,69.5,97,89,73,30.12,30.03,21,5,21,1.30
2014-8-2,77.0,75.8,74.1,75.6,74.3,72.5,97,95,92,30.09,30.01,20,4,20,0.73
2014-8-3,77.8,74.8,71.8,76.3,72.9,70.3,97,94,88,30.12,30.01,16,4,16,0.96
2014-8-4,77.3,75.3,73.4,74.6,73.6,72.2,97,95,90,30.08,30.00,13,3,13,0.57
2014-8-5,79.9,77.5,75.6,76.4,75.3,73.3,97,93,88,30.02,29.91,15,5,15,0.01
2014-8-6,84.7,79.2,75.6,77.9,57.4,71.2,93,67,67,29.95,29.88,19,5,19,0.07
2014-8-7,81.2,78.8,76.9,76.5,74.3,71.4,92,86,79,29.99,29.87,16,6,16,0.01
2014-8-8,80.2,77.9,74.8,72.8,70.8,68.5,91,79,69,30.07,29.97,19,8,19,0.00
2014-8-9,77.8,76.1,73.5,72.5,69.0,65.0,84,79,68,30.09,30.02,20,8,20,0.02
2014-8-10,81.9,78.4,75.4,73.0,70.0,66.7,90,76,65,30.06,30.00,18,7,18,0.00
2014-8-11,82.9,79.9,76.9,74.4,70.3,67.7,87,73,63,30.05,29.95,20,7,20,0.00
2014-8-12,84.5,80.1,74.4,79.0,76.9,72.3,97,90,82,29.95,29.78,20,5,20,0.33
2014-8-13,84.0,80.6,77.1,79.0,75.3,70.1,94,85,67,29.84,29.75,24,8,24,0.00
2014-8-14,77.0,76.8,75.9,69.2,68.6,68.1,78,76,75,29.97,29.96,10,4,10,0.00
2014-8-15,83.7,79.2,73.4,71.2,67.5,63.7,78,68,54,30.01,29.92,14,4,14,0.01
2014-8-16,84.1,80.7,77.6,75.1,71.7,66.8,86,74,59,30.03,29.95,15,4,15,0.01
2014-8-17,85.3,81.3,79.0,78.9,76.9,74.0,93,87,78,29.98,29.89,15,5,15,0.00
2014-8-18,86.0,80.5,73.1,80.1,77.0,71.0,96,89,72,29.91,29.78,20,4,20,1.09
2014-8-19,85.3,80.1,75.3,78.6,75.9,72.5,94,87,74,29.83,29.72,20,6,20,0.02
2014-8-20,82.4,79.9,78.0,77.3,75.9,74.7,93,88,81,30.01,29.80,16,5,16,0.00
2014-8-21,86.0,81.7,77.5,80.6,78.0,75.0,95,89,72,30.03,29.95,13,3,13,0.00
2014-8-22,87.3,83.3,79.5,80.0,77.4,74.2,93,83,70,29.98,29.88,18,7,18,0.00
2014-8-23,81.5,79.9,78.2,76.1,74.1,71.7,91,82,77,29.93,29.87,21,6,21,0.02
2014-8-24,78.8,76.7,74.6,74.1,70.0,65.7,94,80,69,29.98,29.88,31,16,31,0.23
2014-8-25,77.5,76.0,74.0,72.0,70.5,66.2,92,83,75,30.02,29.94,30,16,30,0.06
2014-8-26,78.0,76.6,74.9,73.2,71.4,68.3,89,84,79,30.04,29.98,25,14,25,0.00
2014-8-27,80.3,77.9,76.2,75.4,73.5,69.3,92,87,77,29.98,29.88,28,14,28,0.00
2014-8-28,84.7,79.3,76.2,75.9,71.9,68.8,89,79,67,29.95,29.88,18,8,18,0.00
2014-8-29,81.6,79.5,78.3,76.8,74.7,72.2,91,85,78,30.13,30.05,19,5,19,0.00
2014-8-30,85.4,80.6,76.5,77.9,75.5,72.6,95,85,71,30.19,30.11,12,2,12,0.00
2014-8-31,85.8,82.0,78.0,77.8,76.0,73.3,88,82,71,30.17,30.06,15,4,15,0.01
2014-9-1,85.8,82.5,80.4,79.8,78.2,76.9,92,87,78,30.09,30.01,18,7,18,0.00
2014-9-2,86.5,83.1,80.4,81.1,79.0,77.6,92,87,81,30.05,29.94,21,9,22,0.00
2014-9-3,86.2,82.8,80.3,79.7,78.4,77.0,91,87,79,30.09,29.97,18,8,20,0.00
2014-9-4,85.5,81.8,76.4,78.9,77.0,73.5,94,85,73,30.17,30.08,15,4,17,1.12
2014-9-5,86.4,83.3,80.3,78.7,77.3,75.5,91,82,76,30.18,30.07,12,4,13,0.00
2014-9-6,85.0,82.0,78.8,78.4,76.8,73.8,92,85,77,30.07,29.94,18,6,19,0.00
2014-9-7,82.0,78.7,74.1,77.4,75.5,72.7,97,90,83,30.05,29.93,21,5,33,1.26
2014-9-8,81.8,77.0,73.7,77.5,74.9,72.5,96,93,82,30.08,30.01,30,2,30,1.33
2014-9-9,79.8,76.9,73.1,76.1,74.2,72.2,97,91,85,30.05,29.94,20,7,26,0.56
2014-9-10,76.8,75.4,74.8,73.3,72.6,71.7,93,91,88,30.04,29.94,18,11,18,0.00
2014-9-11,83.0,80.6,78.4,76.2,75.1,73.7,88,84,75,30.03,29.92,16,6,17,0.00
2014-9-12,83.4,79.6,76.6,78.1,76.2,74.4,94,90,80,30.05,29.95,19,8,20,0.14
2014-9-13,83.8,79.3,75.5,78.0,76.1,74.3,97,90,80,30.09,30.00,16,5,19,0.39
2014-9-14,78.3,73.6,71.8,75.5,69.1,65.3,93,86,80,30.18,30.07,23,13,26,0.00
2014-9-15,75.3,73.0,71.2,67.5,66.1,63.9,86,79,72,30.17,30.07,18,7,19,0.00
2014-9-16,80.3,75.9,71.4,73.7,70.7,66.6,90,84,78,30.09,29.91,11,3,11,0.00
2014-9-17,76.9,75.0,72.9,72.1,69.9,67.2,94,84,77,29.93,29.85,21,9,22,0.01
2014-9-19,75.3,71.2,73.6,66.9,63.2,64.8,79,72,72,30.17,-32.77,23,12,24,0.00
2014-9-20,74.3,73.0,70.9,72.5,70.4,66.6,97,92,79,30.15,29.85,26,11,26,1.09
2014-9-21,78.1,74.6,71.9,72.3,71.4,69.6,98,90,76,29.85,29.68,25,12,25,2.76
2014-9-22,76.9,75.0,72.5,73.2,69.2,64.5,90,82,74,30.09,29.82,17,8,17,0.00
2014-9-23,72.6,70.8,69.4,66.5,64.2,61.8,89,80,73,30.19,30.08,31,15,32,0.00
2014-9-24,77.4,73.0,68.6,74.9,71.6,65.8,98,95,89,30.16,30.08,31,9,31,1.99
2014-9-25,76.8,72.9,68.1,74.6,71.7,66.6,98,96,93,30.16,30.08,16,6,16,0.43
2014-9-26,72.0,70.2,68.1,69.6,67.0,64.5,96,90,83,30.12,30.06,25,13,25,0.01
2014-9-27,72.8,71.3,70.1,68.8,67.2,64.9,91,87,83,30.14,30.07,23,12,23,0.00
2014-9-28,74.3,72.1,70.2,70.4,69.0,67.4,93,90,85,30.12,30.01,15,8,16,0.00
2014-9-29,73.7,72.4,70.0,70.3,68.6,61.8,95,88,75,30.01,29.89,15,6,15,0.01
2014-9-30,74.1,71.3,65.5,68.2,65.8,59.8,90,83,71,29.90,29.78,21,10,21,0.05
2014-10-1,74.4,71.6,69.9,68.3,67.5,65.0,93,87,73,30.00,29.83,19,10,19,0.00
2014-10-2,73.0,70.5,68.0,67.5,66.0,64.3,89,86,80,30.08,29.99,12,5,13,0.00
2014-10-3,77.1,71.4,65.6,71.9,66.8,63.1,93,85,78,30.06,29.81,13,3,14,0.00
2014-10-4,78.9,75.0,63.2,73.5,67.6,49.3,95,78,53,29.81,29.59,31,11,31,0.13
2014-10-5,64.1,60.9,58.8,51.9,45.1,39.8,69,56,42,30.03,29.80,30,10,30,0.00
2014-10-6,71.3,65.8,55.1,59.7,52.6,46.4,80,63,48,30.12,30.02,14,3,14,0.00
2014-10-7,74.5,71.3,67.6,67.8,64.9,59.7,89,80,70,30.14,30.03,17,3,17,0.00
2014-10-8,79.2,75.5,72.0,73.5,70.8,66.5,93,86,73,30.03,29.91,19,7,19,0.00
2014-10-9,73.8,69.8,63.6,71.6,61.2,57.0,93,75,62,30.11,29.95,23,8,23,0.00
2014-10-10,77.5,71.3,62.3,71.4,64.7,58.1,94,80,62,30.12,30.01,10,2,10,0.00
2014-10-11,79.5,75.7,68.4,74.6,72.1,66.5,96,89,84,30.03,29.90,45,8,45,0.39
2014-10-12,72.7,70.8,68.4,70.2,66.6,64.1,94,87,82,30.17,30.00,26,12,26,0.40
2014-10-13,78.0,74.5,71.7,74.6,71.4,68.8,97,90,81,30.23,30.15,17,4,17,1.10
2014-10-14,81.6,78.0,75.0,73.8,71.5,68.5,85,81,72,30.16,29.99,25,8,25,0.00
2014-10-15,81.4,75.4,66.3,76.5,72.3,61.1,97,90,76,30.00,29.79,32,8,32,0.98
2014-10-16,73.6,70.2,67.3,63.9,60.4,53.2,83,71,52,29.82,29.74,18,7,18,0.59
2014-10-17,72.4,68.7,65.4,64.1,59.6,56.3,82,73,60,29.89,29.78,21,7,21,0.00
2014-10-18,75.7,70.3,66.9,68.1,62.6,54.0,85,77,61,29.82,29.68,24,10,24,0.00
2014-10-19,66.9,62.0,59.0,56.6,50.9,43.9,81,67,49,30.03,29.80,29,17,29,0.01
2014-10-20,71.3,67.5,62.9,63.1,56.9,50.2,76,69,63,30.15,29.96,15,4,33,0.00
2014-10-21,73.3,68.9,64.9,64.8,63.4,60.4,95,83,66,29.95,29.79,15,5,15,0.23
2014-10-22,69.4,61.0,58.0,64.7,55.6,52.3,88,82,76,29.87,29.77,29,16,31,0.00
2014-10-23,65.1,62.2,57.1,57.0,53.1,48.8,77,72,67,29.92,29.83,28,12,28,0.00
2014-10-24,66.0,62.6,57.9,59.0,54.6,50.2,81,75,66,29.99,29.89,22,10,22,0.00
2014-10-25,68.7,64.7,61.3,59.3,55.7,49.6,84,73,51,29.95,29.82,20,6,20,0.00
2014-10-26,72.5,64.8,57.6,61.1,57.2,52.1,87,77,63,29.93,29.74,21,6,21,0.00
2014-10-27,69.5,63.3,55.7,60.5,56.1,51.2,94,76,65,30.09,29.92,9,1,11,0.01
2014-10-28,77.8,72.6,57.6,70.8,67.0,54.1,92,83,68,30.13,30.06,12,4,13,0.00
2014-10-29,75.1,72.4,69.9,70.1,68.5,66.8,91,88,81,30.06,29.89,18,6,18,0.00
2014-10-30,71.6,59.2,60.6,68.8,53.0,52.3,94,74,67,29.97,29.88,29,12,29,0.00
2014-10-31,62.6,56.8,57.2,55.3,49.8,50.4,86,71,71,29.92,29.70,29,14,29,0.01
2014-11-1,58.7,55.6,52.1,54.3,50.4,46.6,91,83,73,29.70,29.48,48,18,48,0.22
2014-11-2,53.2,49.0,45.2,47.1,27.3,34.5,82,47,56,30.21,29.66,44,24,44,0.00
2014-11-3,57.8,52.4,47.1,46.0,33.7,33.8,70,53,50,30.36,30.20,28,11,28,0.00
2014-11-4,63.2,58.3,54.1,53.4,34.2,46.4,77,48,61,30.33,30.22,16,6,16,0.00
2014-11-5,68.1,55.9,57.8,63.4,52.2,50.6,94,76,75,30.29,30.16,12,3,12,0.00
2014-11-6,70.4,61.1,57.1,65.9,57.7,51.6,93,79,77,30.16,29.68,41,8,41,0.01
2014-11-7,59.9,56.8,53.8,51.8,48.2,44.0,83,73,66,30.00,29.72,33,14,33,0.01
2014-11-8,58.4,55.7,52.2,51.8,49.2,43.3,85,79,66,30.05,29.93,17,6,17,0.00
2014-11-9,58.1,56.7,53.8,54.3,52.1,49.1,91,85,74,29.99,29.88,11,4,11,0.10
2014-11-10,61.6,58.9,54.7,59.8,55.8,50.1,95,90,80,30.08,29.97,18,8,18,0.00
2014-11-11,68.3,63.3,60.4,67.0,62.5,59.0,100,97,93,29.97,29.80,18,7,18,0.37
2014-11-12,67.1,62.2,59.6,63.9,61.1,58.8,99,96,83,29.99,29.86,16,6,16,0.02
2014-11-13,61.4,58.5,50.1,59.8,56.7,49.0,98,94,89,30.03,29.89,22,10,24,0.04
2014-11-14,50.3,46.1,43.6,49.2,40.5,31.8,97,81,63,30.21,29.92,28,17,30,0.02
2014-11-15,46.9,44.3,41.2,39.9,35.6,29.4,82,71,61,30.36,30.20,27,12,27,0.00
2014-11-16,67.6,54.8,46.1,66.5,51.5,39.9,97,89,79,30.33,29.98,23,6,23,0.44
2014-11-17,74.5,65.7,53.6,70.4,63.9,52.8,99,94,86,30.00,29.63,29,7,29,0.24
2014-11-18,65.5,45.4,38.4,64.0,34.9,21.3,95,67,50,30.27,29.68,34,16,34,0.01
2014-11-19,43.1,37.0,34.5,31.7,22.6,16.9,70,56,47,30.40,30.26,26,11,26,0.00
2014-11-20,55.5,53.1,46.0,47.6,40.5,31.2,78,63,44,30.18,30.01,21,10,21,0.00
2014-11-21,52.8,46.5,42.5,45.4,32.6,24.3,80,59,44,30.52,30.11,23,12,23,0.00
2014-11-22,50.4,45.9,42.3,45.5,39.5,30.3,93,79,62,30.54,30.30,16,5,16,0.00
2014-11-23,70.3,61.9,48.1,67.1,57.8,45.3,96,87,76,30.30,29.83,29,6,29,0.14
2014-11-24,71.2,68.1,64.6,69.9,67.0,63.6,98,96,91,29.93,29.78,34,7,34,0.55
2014-11-25,66.5,63.0,55.9,65.9,62.0,55.3,100,97,94,30.07,29.91,16,4,16,0.18
2014-11-26,72.8,58.5,45.4,71.9,57.0,42.1,99,95,87,30.05,29.61,34,12,34,0.92
2014-11-27,58.9,48.6,43.2,50.4,44.5,39.8,94,86,52,30.15,29.87,29,10,29,0.01
2014-11-28,45.4,43.0,40.8,41.4,33.6,27.3,88,70,54,30.30,30.13,31,14,31,0.00
2014-11-29,50.6,43.7,36.1,47.7,34.5,29.0,94,71,53,30.37,30.25,9,2,9,0.00
2014-11-30,61.9,56.5,50.8,55.0,50.7,45.6,92,81,68,30.35,30.23,18,5,18,0.00
2014-12-1,67.0,58.7,55.3,57.8,54.3,52.4,92,86,67,30.35,30.25,14,5,14,0.00
2014-12-2,56.5,54.5,52.4,55.6,53.3,51.3,100,96,91,30.38,30.29,18,8,18,0.00
2014-12-3,60.9,54.7,51.3,60.0,54.2,50.8,100,98,95,30.30,30.14,10,3,10,0.00
2014-12-4,56.6,53.9,52.2,55.7,50.2,47.3,98,87,81,30.36,30.20,28,12,28,0.01
2014-12-5,57.1,55.3,53.4,55.2,52.2,49.0,96,89,84,30.39,30.28,23,10,23,0.00
2014-12-6,69.7,61.4,55.5,65.7,60.0,54.4,99,95,85,30.28,29.97,18,2,18,0.38
2014-12-7,59.8,50.0,46.2,58.8,47.3,43.1,99,90,82,30.27,29.96,40,22,40,0.43
2014-12-8,54.3,52.8,51.0,53.5,49.3,46.3,98,88,77,30.25,29.93,39,19,39,0.06
2014-12-9,52.3,45.8,42.4,51.3,44.8,41.3,98,96,93,29.94,29.79,29,16,29,0.11
2014-12-10,51.5,48.8,46.1,45.1,42.0,37.7,94,78,67,29.90,29.78,30,14,30,0.00
2014-12-11,47.0,43.9,41.0,38.9,34.1,30.5,77,68,59,30.05,29.89,22,12,22,0.00
2014-12-12,48.5,45.3,41.6,42.2,34.1,27.8,79,65,54,30.14,30.04,18,10,22,0.00
2014-12-13,48.0,45.4,44.0,42.4,38.0,36.6,87,75,68,30.10,29.98,11,5,14,0.00
2014-12-14,49.7,47.0,40.6,43.8,42.0,38.3,92,83,75,30.02,29.94,15,4,16,0.00
2014-12-15,52.0,46.6,39.7,47.5,43.5,38.0,97,89,72,30.11,30.00,14,2,14,0.00
2014-12-16,64.7,55.2,43.4,59.4,51.6,42.1,98,88,70,30.08,29.87,19,4,19,0.03
2014-12-17,54.7,51.7,49.8,51.5,48.3,45.9,95,88,76,30.07,29.88,19,7,19,0.00
2014-12-18,50.9,45.6,39.7,47.8,40.2,36.7,92,81,70,30.14,30.01,16,6,19,0.00
2014-12-19,47.4,45.0,39.9,42.6,39.6,37.2,92,81,68,30.20,30.05,14,5,14,0.00
2014-12-20,44.7,44.3,43.7,40.7,39.2,36.7,88,82,74,30.26,30.17,17,7,17,0.03
2014-12-21,48.6,45.9,43.7,46.9,42.3,40.1,94,87,82,30.27,30.14,22,12,23,0.04
2014-12-22,65.0,52.3,48.4,64.3,51.7,46.9,99,98,94,30.14,29.91,22,8,22,0.35
2014-12-23,68.5,50.6,45.9,68.1,50.1,45.6,99,98,96,30.05,29.94,20,6,20,0.58
2014-12-24,69.5,66.8,62.9,68.4,65.9,61.7,99,97,93,29.97,29.70,29,6,29,1.02
2014-12-25,69.0,58.2,52.0,68.1,54.2,46.3,98,87,75,30.22,29.69,21,8,21,0.00
2014-12-26,53.9,51.1,46.9,47.3,44.8,41.4,88,79,63,30.33,30.21,13,5,13,0.00
2014-12-27,53.7,51.8,48.7,51.0,46.9,44.0,97,84,71,30.33,30.16,6,2,33,0.01
2014-12-28,64.7,58.6,51.9,60.6,55.8,49.1,98,90,83,30.16,29.98,8,3,33,0.00
2014-12-29,58.4,53.2,48.8,57.7,52.3,46.6,98,97,92,30.10,29.99,17,10,33,0.08
2014-12-30,49.1,46.0,42.7,47.7,43.2,36.4,98,90,78,30.35,30.08,22,18,33,0.04
2014-12-31,45.4,43.5,42.2,37.8,35.0,28.0,83,72,52,30.40,30.30,16,12,33,0.00
2015-1-1,49.9,45.9,43.2,43.7,34.3,28.1,83,64,54,30.34,30.21,12,7,33,0.00
2015-1-2,53.1,51.0,48.8,47.7,45.9,43.2,88,83,75,30.36,30.21,10,5,33,0.00